createdAt,value
2023-03-20T00:01:31.168Z,20.85
2023-03-20T00:04:06.208Z,21.35
2023-03-20T00:06:39.943Z,21.50
2023-03-20T00:09:13.705Z,18.65
2023-03-20T00:11:50.127Z,20.80
2023-03-20T00:14:25.285Z,20.20
2023-03-20T00:16:59.244Z,20.70
2023-03-20T00:19:34.222Z,21.20
2023-03-20T00:22:07.707Z,23.45
2023-03-20T00:24:41.234Z,20.40
2023-03-20T00:27:16.197Z,22.75
2023-03-20T00:29:49.800Z,22.02
2023-03-20T00:32:23.728Z,23.98
2023-03-20T00:34:58.724Z,19.73
2023-03-20T00:37:32.218Z,23.10
2023-03-20T00:40:06.762Z,21.58
2023-03-20T00:42:40.569Z,19.75
2023-03-20T00:45:17.007Z,21.63
2023-03-20T00:47:52.930Z,21.85
2023-03-20T00:50:30.163Z,19.63
2023-03-20T00:53:04.882Z,23.45
2023-03-20T00:55:41.601Z,21.45
2023-03-20T00:58:15.057Z,18.27
2023-03-20T01:00:48.639Z,20.52
2023-03-20T01:03:24.231Z,18.95
2023-03-20T01:05:59.174Z,18.45
2023-03-20T01:08:32.669Z,18.20
2023-03-20T01:11:06.598Z,17.08
2023-03-20T01:13:41.548Z,15.93
2023-03-20T01:16:22.900Z,18.75
2023-03-20T01:18:56.868Z,14.73
2023-03-20T01:21:32.212Z,15.90
2023-03-20T01:24:05.864Z,19.33
2023-03-20T01:26:42.185Z,16.13
2023-03-20T01:29:20.731Z,18.13
2023-03-20T01:31:55.245Z,18.98
2023-03-20T01:34:31.137Z,18.25
2023-03-20T01:37:10.774Z,19.58
2023-03-20T01:39:44.366Z,18.92
2023-03-20T01:42:18.512Z,18.90
2023-03-20T01:44:52.945Z,18.30
2023-03-20T01:47:27.858Z,17.05
2023-03-20T01:50:27.417Z,19.17
2023-03-20T01:53:29.991Z,18.40
2023-03-20T01:56:08.135Z,17.20
2023-03-20T01:58:52.619Z,13.90
2023-03-20T02:01:27.745Z,16.30
2023-03-20T02:04:01.367Z,16.50
2023-03-20T02:06:56.284Z,17.40
2023-03-20T02:09:43.481Z,17.70
2023-03-20T02:12:23.548Z,16.02
2023-03-20T02:14:58.765Z,16.02
2023-03-20T02:17:54.005Z,15.93
2023-03-20T02:20:47.039Z,16.65
2023-03-20T02:23:48.925Z,16.50
2023-03-20T02:26:40.377Z,16.23
2023-03-20T02:29:42.443Z,14.15
2023-03-20T02:32:45.506Z,13.93
2023-03-20T02:35:40.933Z,15.10
2023-03-20T02:38:31.861Z,15.05
2023-03-20T02:41:15.255Z,14.52
2023-03-20T02:44:01.541Z,14.63
2023-03-20T02:46:43.393Z,13.93
2023-03-20T02:49:36.642Z,15.35
2023-03-20T02:52:19.628Z,13.75
2023-03-20T02:55:02.369Z,15.93
2023-03-20T02:57:45.219Z,13.40
2023-03-20T03:00:28.479Z,14.20
2023-03-20T03:03:11.055Z,13.05
2023-03-20T03:05:51.155Z,14.52
2023-03-20T03:08:27.689Z,14.75
2023-03-20T03:11:06.524Z,14.82
2023-03-20T03:13:45.536Z,13.40
2023-03-20T03:16:23.741Z,13.77
2023-03-20T03:19:06.738Z,14.02
2023-03-20T03:24:40.438Z,14.75
2023-03-20T03:27:22.169Z,13.98
2023-03-20T03:29:59.205Z,13.80
2023-03-20T03:32:37.774Z,14.60
2023-03-20T03:35:17.900Z,13.15
2023-03-20T03:37:59.815Z,13.50
2023-03-20T03:40:37.842Z,14.52
2023-03-20T03:43:19.197Z,13.52
2023-03-20T03:45:59.266Z,11.77
2023-03-20T03:48:37.711Z,12.32
2023-03-20T03:51:15.795Z,13.23
2023-03-20T03:54:10.257Z,13.50
2023-03-20T03:56:48.447Z,12.15
2023-03-20T03:59:28.618Z,11.15
2023-03-20T04:02:05.849Z,11.23
2023-03-20T04:04:44.940Z,12.93
2023-03-20T04:07:18.590Z,11.55
2023-03-20T04:09:52.055Z,10.90
2023-03-20T04:12:37.296Z,11.02
2023-03-20T04:15:15.912Z,11.05
2023-03-20T04:17:49.618Z,10.60
2023-03-20T04:20:24.569Z,11.50
2023-03-20T04:22:58.088Z,11.68
2023-03-20T04:25:33.067Z,10.27
2023-03-20T04:28:07.526Z,11.55
2023-03-20T04:30:56.132Z,11.68
2023-03-20T04:33:52.849Z,11.82
2023-03-20T04:36:37.768Z,11.25
2023-03-20T04:39:13.972Z,11.15
2023-03-20T04:41:47.989Z,10.32
2023-03-20T04:44:21.716Z,11.60
2023-03-20T04:46:56.827Z,10.55
2023-03-20T04:49:30.669Z,9.52
2023-03-20T04:52:04.190Z,9.88
2023-03-20T04:54:47.280Z,9.93
2023-03-20T04:57:20.746Z,8.18
2023-03-20T04:59:54.504Z,10.60
2023-03-20T05:02:30.391Z,9.55
2023-03-20T05:05:04.084Z,11.48
2023-03-20T05:07:38.457Z,10.45
2023-03-20T05:10:15.486Z,10.82
2023-03-20T05:13:09.184Z,10.63
2023-03-20T05:15:57.299Z,11.30
2023-03-20T05:19:02.630Z,10.57
2023-03-20T05:22:02.375Z,10.40
2023-03-20T05:24:58.633Z,10.13
2023-03-20T05:27:32.142Z,9.57
2023-03-20T05:30:28.484Z,11.55
2023-03-20T05:33:01.973Z,11.95
2023-03-20T05:35:37.037Z,11.13
2023-03-20T05:38:27.967Z,11.68
2023-03-20T05:41:15.836Z,12.15
2023-03-20T05:44:07.629Z,12.87
2023-03-20T05:47:02.879Z,12.13
2023-03-20T05:50:09.500Z,11.70
2023-03-20T05:53:22.531Z,11.27
2023-03-20T05:56:08.760Z,13.23
2023-03-20T05:58:55.993Z,12.40
2023-03-20T06:01:32.070Z,11.15
2023-03-20T06:04:14.959Z,11.57
2023-03-20T06:07:17.787Z,12.40
2023-03-20T06:10:00.989Z,11.48
2023-03-20T06:12:35.783Z,10.45
2023-03-20T06:15:10.007Z,10.05
2023-03-20T06:17:47.680Z,9.85
2023-03-20T06:20:22.004Z,10.20
2023-03-20T06:22:55.740Z,9.48
2023-03-20T06:25:31.710Z,10.80
2023-03-20T06:28:05.496Z,9.13
2023-03-20T06:30:39.350Z,9.50
2023-03-20T06:33:15.110Z,9.80
2023-03-20T06:36:03.598Z,10.23
2023-03-20T06:38:38.366Z,10.70
2023-03-20T06:41:31.863Z,10.23
2023-03-20T06:44:11.037Z,9.10
2023-03-20T06:47:03.088Z,9.50
2023-03-20T06:49:37.860Z,10.02
2023-03-20T06:52:17.343Z,10.65
2023-03-20T06:54:56.344Z,10.05
2023-03-20T06:57:31.540Z,10.50
2023-03-20T07:00:05.701Z,9.32
2023-03-20T07:02:39.789Z,9.27
2023-03-20T07:05:13.617Z,10.13
2023-03-20T07:07:47.717Z,9.05
2023-03-20T07:10:21.510Z,10.75
2023-03-20T07:13:00.309Z,11.25
2023-03-20T07:15:34.249Z,9.02
2023-03-20T07:18:08.541Z,10.38
2023-03-20T07:20:42.073Z,10.82
2023-03-20T07:23:15.632Z,10.70
2023-03-20T07:25:49.157Z,11.65
2023-03-20T07:28:27.117Z,11.07
2023-03-20T07:31:21.313Z,9.95
2023-03-20T07:33:58.203Z,9.10
2023-03-20T07:36:31.688Z,8.20
2023-03-20T07:39:06.333Z,8.77
2023-03-20T07:41:41.808Z,7.82
2023-03-20T07:44:19.365Z,8.07
2023-03-20T07:46:59.114Z,7.75
2023-03-20T07:49:32.725Z,6.63
2023-03-20T07:52:07.136Z,8.10
2023-03-20T07:54:40.650Z,6.97
2023-03-20T07:57:14.211Z,7.63
2023-03-20T07:59:49.259Z,6.47
2023-03-20T08:02:22.744Z,6.78
2023-03-20T08:04:56.206Z,7.50
2023-03-20T08:07:30.068Z,7.18
2023-03-20T08:10:04.676Z,6.13
2023-03-20T08:12:38.182Z,6.40
2023-03-20T08:15:13.475Z,7.05
2023-03-20T08:17:47.638Z,7.57
2023-03-20T08:20:21.822Z,5.75
2023-03-20T08:22:55.504Z,5.85
2023-03-20T08:25:32.610Z,5.95
2023-03-20T08:28:06.103Z,5.35
2023-03-20T08:30:41.049Z,4.00
2023-03-20T08:33:15.348Z,4.07
2023-03-20T08:35:57.408Z,3.63
2023-03-20T08:38:30.931Z,4.18
2023-03-20T08:41:04.635Z,3.58
2023-03-20T08:43:38.139Z,4.05
2023-03-20T08:46:13.096Z,4.22
2023-03-20T08:48:46.649Z,3.40
2023-03-20T08:51:20.517Z,3.40
2023-03-20T08:53:53.994Z,3.92
2023-03-20T08:56:27.525Z,3.90
2023-03-20T08:59:01.002Z,5.40
2023-03-20T09:01:48.761Z,7.25
2023-03-20T09:04:23.442Z,4.85
2023-03-20T09:06:57.091Z,6.80
2023-03-20T09:09:30.794Z,6.45
2023-03-20T09:12:04.286Z,4.35
2023-03-20T09:14:38.484Z,3.83
2023-03-20T09:17:13.383Z,3.70
2023-03-20T09:19:46.945Z,3.15
2023-03-20T09:22:20.582Z,3.75
2023-03-20T09:24:54.051Z,3.78
2023-03-20T09:27:27.720Z,3.70
2023-03-20T09:30:01.191Z,3.45
2023-03-20T09:32:36.337Z,3.63
2023-03-20T09:35:10.494Z,3.45
2023-03-20T09:37:44.075Z,3.60
2023-03-20T09:40:27.406Z,3.40
2023-03-20T09:43:08.250Z,3.00
2023-03-20T09:45:51.598Z,3.08
2023-03-20T09:48:34.390Z,4.10
2023-03-20T09:51:16.099Z,3.92
2023-03-20T09:53:56.270Z,2.80
2023-03-20T09:56:31.256Z,3.22
2023-03-20T09:59:06.905Z,3.60
2023-03-20T10:01:48.164Z,4.18
2023-03-20T10:04:27.223Z,4.82
2023-03-20T10:07:00.782Z,3.88
2023-03-20T10:09:34.837Z,3.60
2023-03-20T10:12:24.406Z,3.47
2023-03-20T10:15:08.596Z,3.47
2023-03-20T10:17:52.835Z,3.97
2023-03-20T10:20:34.557Z,3.95
2023-03-20T10:23:14.628Z,3.63
2023-03-20T10:25:53.043Z,3.58
2023-03-20T10:28:33.546Z,3.85
2023-03-20T10:31:20.025Z,3.60
2023-03-20T10:34:05.292Z,3.60
2023-03-20T10:36:51.751Z,3.75
2023-03-20T10:39:36.673Z,3.72
2023-03-20T10:42:16.777Z,3.97
2023-03-20T10:44:54.910Z,2.92
2023-03-20T10:47:32.395Z,3.65
2023-03-20T10:50:10.303Z,3.83
2023-03-20T10:52:48.167Z,3.38
2023-03-20T10:55:25.698Z,3.92
2023-03-20T10:58:04.457Z,3.33
2023-03-20T11:00:38.348Z,3.83
2023-03-20T11:03:21.998Z,3.50
2023-03-20T11:06:09.341Z,3.47
2023-03-20T11:08:49.457Z,3.00
2023-03-20T11:11:25.051Z,3.03
2023-03-20T11:13:58.788Z,3.15
2023-03-20T11:16:36.826Z,3.40
2023-03-20T11:19:14.520Z,3.58
2023-03-20T11:21:49.728Z,3.72
2023-03-20T11:24:34.585Z,3.55
2023-03-20T11:27:10.728Z,3.40
2023-03-20T11:29:47.892Z,3.15
2023-03-20T11:32:28.758Z,3.17
2023-03-20T11:35:19.388Z,3.80
2023-03-20T11:37:54.685Z,2.95
2023-03-20T11:40:33.203Z,3.70
2023-03-20T11:43:13.234Z,3.30
2023-03-20T11:45:49.478Z,4.45
2023-03-20T11:48:25.435Z,3.38
2023-03-20T11:51:05.882Z,3.92
2023-03-20T11:53:41.915Z,3.97
2023-03-20T11:56:24.013Z,3.28
2023-03-20T11:58:59.501Z,3.88
2023-03-20T12:01:44.700Z,3.60
2023-03-20T12:04:19.947Z,3.50
2023-03-20T12:06:57.207Z,3.38
2023-03-20T12:09:38.254Z,3.60
2023-03-20T12:12:23.733Z,3.75
2023-03-20T12:15:04.844Z,3.78
2023-03-20T12:17:47.421Z,3.42
2023-03-20T12:20:36.653Z,3.42
2023-03-20T12:23:15.108Z,3.30
2023-03-20T12:25:55.290Z,2.97
2023-03-20T12:28:35.995Z,3.40
2023-03-20T12:31:22.038Z,3.80
2023-03-20T12:34:01.538Z,3.55
2023-03-20T12:36:37.267Z,2.65
2023-03-20T12:39:16.033Z,3.35
2023-03-20T12:42:02.233Z,3.28
2023-03-20T12:44:42.766Z,3.67
2023-03-20T12:47:28.711Z,3.95
2023-03-20T12:50:11.626Z,3.13
2023-03-20T12:52:53.251Z,2.92
2023-03-20T12:55:39.375Z,3.85
2023-03-20T12:58:24.793Z,3.58
2023-03-20T13:01:05.840Z,2.92
2023-03-20T13:04:06.448Z,3.08
2023-03-20T13:06:51.621Z,2.50
2023-03-20T13:10:02.938Z,4.13
2023-03-20T13:12:47.626Z,3.13
2023-03-20T13:15:29.196Z,3.22
2023-03-20T13:18:12.349Z,3.20
2023-03-20T13:20:52.172Z,3.13
2023-03-20T13:23:30.470Z,2.78
2023-03-20T13:26:30.763Z,3.47
2023-03-20T13:29:10.329Z,2.88
2023-03-20T13:31:54.732Z,2.88
2023-03-20T13:34:43.886Z,3.25
2023-03-20T13:37:24.394Z,3.17
2023-03-20T13:40:05.944Z,2.58
2023-03-20T13:42:45.553Z,3.00
2023-03-20T13:45:32.241Z,2.90
2023-03-20T13:48:18.813Z,3.00
2023-03-20T13:51:02.187Z,3.55
2023-03-20T13:53:45.813Z,3.30
2023-03-20T13:56:28.421Z,3.17
2023-03-20T13:59:15.766Z,3.47
2023-03-20T14:01:56.784Z,3.60
2023-03-20T14:04:31.956Z,3.88
2023-03-20T14:07:30.246Z,3.97
2023-03-20T14:10:38.248Z,3.38
2023-03-20T14:13:16.575Z,3.10
2023-03-20T14:15:55.451Z,3.42
2023-03-20T14:18:29.237Z,4.10
2023-03-20T14:21:05.571Z,3.35
2023-03-20T14:23:44.418Z,4.20
2023-03-20T14:26:35.968Z,3.70
2023-03-20T14:29:33.475Z,3.90
2023-03-20T14:32:24.708Z,4.53
2023-03-20T14:35:02.425Z,4.07
2023-03-20T14:37:52.064Z,4.43
2023-03-20T14:40:31.856Z,4.40
2023-03-20T14:43:15.075Z,4.45
2023-03-20T14:45:55.713Z,4.07
2023-03-20T14:48:37.642Z,4.80
2023-03-20T14:51:23.541Z,5.10
2023-03-20T14:53:58.594Z,4.88
2023-03-20T14:56:35.181Z,5.43
2023-03-20T14:59:12.633Z,6.10
2023-03-20T15:01:49.094Z,6.28
2023-03-20T15:04:29.562Z,6.20
2023-03-20T15:07:07.572Z,5.78
2023-03-20T15:09:44.579Z,6.30
2023-03-20T15:12:24.989Z,7.30
2023-03-20T15:15:03.537Z,5.93
2023-03-20T15:17:38.802Z,6.80
2023-03-20T15:20:17.777Z,6.78
2023-03-20T15:22:52.668Z,6.00
2023-03-20T15:25:32.020Z,5.50
2023-03-20T15:28:09.609Z,5.63
2023-03-20T15:30:44.530Z,5.93
2023-03-20T15:33:21.182Z,5.03
2023-03-20T15:35:55.174Z,5.68
2023-03-20T15:38:32.541Z,5.93
2023-03-20T15:41:07.289Z,5.57
2023-03-20T15:43:42.425Z,4.88
2023-03-20T15:46:18.330Z,6.00
2023-03-20T15:48:52.422Z,4.80
2023-03-20T15:51:28.804Z,4.82
2023-03-20T15:54:07.997Z,4.60
2023-03-20T15:56:43.904Z,4.95
2023-03-20T15:59:21.217Z,5.85
2023-03-20T16:01:58.155Z,5.55
2023-03-20T16:04:31.869Z,5.50
2023-03-20T16:07:05.517Z,5.35
2023-03-20T16:09:45.452Z,5.05
2023-03-20T16:12:19.844Z,5.78
2023-03-20T16:14:55.775Z,5.72
2023-03-20T16:17:29.568Z,5.50
2023-03-20T16:20:03.835Z,5.75
2023-03-20T16:22:37.355Z,5.88
2023-03-20T16:25:15.519Z,5.07
2023-03-20T16:27:52.891Z,5.18
2023-03-20T16:30:31.597Z,6.45
2023-03-20T16:33:10.686Z,5.53
2023-03-20T16:35:46.617Z,7.85
2023-03-20T16:38:26.867Z,13.23
2023-03-20T16:41:17.606Z,14.45
2023-03-20T16:43:51.916Z,42.35
2023-03-20T16:46:29.099Z,54.20
2023-03-20T16:49:36.789Z,29.15
2023-03-20T16:52:14.434Z,13.40
2023-03-20T16:54:48.120Z,10.32
2023-03-20T16:57:22.139Z,10.88
2023-03-20T16:59:59.796Z,8.55
2023-03-20T17:02:39.090Z,12.63
2023-03-20T17:05:14.693Z,8.85
2023-03-20T17:07:51.846Z,8.10
2023-03-20T17:10:28.181Z,9.30
2023-03-20T17:13:01.849Z,10.13
2023-03-20T17:15:35.491Z,15.05
2023-03-20T17:18:14.387Z,8.30
2023-03-20T17:20:47.960Z,10.23
2023-03-20T17:23:23.682Z,8.70
2023-03-20T17:25:57.329Z,11.38
2023-03-20T17:28:36.037Z,7.22
2023-03-20T17:31:14.059Z,9.07
2023-03-20T17:33:49.217Z,7.28
2023-03-20T17:36:25.693Z,9.15
2023-03-20T17:39:00.395Z,37.97
2023-03-20T17:41:33.930Z,27.80
2023-03-20T17:44:07.518Z,36.83
2023-03-20T17:46:56.672Z,43.30
2023-03-20T17:49:33.054Z,37.67
2023-03-20T17:52:06.751Z,33.53
2023-03-20T17:54:40.273Z,33.47
2023-03-20T17:57:22.110Z,33.67
2023-03-20T17:59:55.759Z,39.25
2023-03-20T18:02:29.820Z,70.43
2023-03-20T18:05:07.943Z,53.90
2023-03-20T18:07:41.793Z,23.50
2023-03-20T18:10:22.083Z,28.98
2023-03-20T18:12:55.790Z,51.65
2023-03-20T18:15:29.573Z,64.88
2023-03-20T18:18:03.147Z,43.50
2023-03-20T18:20:41.187Z,41.85
2023-03-20T18:23:15.962Z,54.35
2023-03-20T18:25:49.853Z,57.28
2023-03-20T18:28:24.542Z,50.72
2023-03-20T18:30:58.172Z,50.22
2023-03-20T18:33:31.925Z,51.70
2023-03-20T18:36:07.852Z,50.67
2023-03-20T18:38:41.421Z,50.80
2023-03-20T18:41:15.282Z,47.15
2023-03-20T18:43:48.841Z,44.95
2023-03-20T18:46:23.856Z,43.55
2023-03-20T18:48:58.100Z,43.47
2023-03-20T18:51:33.040Z,45.17
2023-03-20T18:54:07.067Z,43.03
2023-03-20T18:56:41.114Z,39.22
2023-03-20T18:59:14.985Z,51.40
2023-03-20T19:01:49.373Z,29.88
2023-03-20T19:04:23.497Z,23.85
2023-03-20T19:06:58.536Z,25.70
2023-03-20T19:09:32.145Z,23.25
2023-03-20T19:12:06.294Z,26.88
2023-03-20T19:14:41.119Z,32.35
2023-03-20T19:17:14.743Z,69.10
2023-03-20T19:19:48.385Z,43.92
2023-03-20T19:22:29.676Z,57.88
2023-03-20T19:25:04.274Z,46.10
2023-03-20T19:27:37.948Z,49.72
2023-03-20T19:30:25.719Z,71.57
2023-03-20T19:32:59.935Z,42.40
2023-03-20T19:38:30.623Z,32.63
2023-03-20T19:41:08.669Z,28.27
2023-03-20T19:43:52.103Z,39.40
2023-03-20T19:46:39.750Z,31.77
2023-03-20T19:49:19.950Z,24.40
2023-03-20T19:51:53.856Z,24.38
2023-03-20T19:54:29.531Z,20.70
2023-03-20T19:57:03.301Z,22.48
2023-03-20T19:59:43.642Z,20.02
2023-03-20T20:02:17.787Z,22.02
2023-03-20T20:04:51.747Z,23.13
2023-03-20T20:08:06.208Z,25.13
2023-03-20T20:10:21.760Z,20.75
2023-03-20T20:12:55.782Z,24.27
2023-03-20T20:15:32.343Z,23.92
2023-03-20T20:18:06.234Z,32.08
2023-03-20T20:21:27.313Z,41.20
2023-03-20T20:23:38.248Z,31.73
2023-03-20T20:26:13.327Z,37.58
2023-03-20T20:28:47.025Z,32.28
2023-03-20T20:31:28.420Z,34.25
2023-03-20T20:34:55.556Z,29.98
2023-03-20T20:37:51.205Z,31.45
2023-03-20T20:39:50.463Z,36.75
2023-03-20T20:42:26.433Z,39.75
2023-03-20T20:45:00.074Z,36.13
2023-03-20T20:47:33.758Z,33.72
2023-03-20T20:50:09.342Z,33.33
2023-03-20T20:52:43.707Z,32.38
2023-03-20T20:55:25.091Z,33.42
2023-03-20T20:58:01.360Z,37.85
2023-03-20T21:00:49.002Z,34.70
2023-03-20T21:03:24.701Z,32.88
2023-03-20T21:05:58.245Z,33.28
2023-03-20T21:08:31.802Z,32.50
2023-03-20T21:11:05.520Z,34.85
2023-03-20T21:13:40.515Z,31.10
2023-03-20T21:16:14.789Z,35.58
2023-03-20T21:18:48.726Z,33.58
2023-03-20T21:21:22.270Z,33.58
2023-03-20T21:23:55.775Z,34.22
2023-03-20T21:26:29.227Z,31.60
2023-03-20T21:29:06.283Z,35.47
2023-03-20T21:31:39.733Z,35.45
2023-03-20T21:34:13.856Z,34.03
2023-03-20T21:36:49.094Z,34.53
2023-03-20T21:39:22.906Z,35.60
2023-03-20T21:41:56.422Z,33.50
2023-03-20T21:45:13.284Z,37.35
2023-03-20T21:50:49.440Z,37.15
2023-03-20T21:56:50.439Z,31.77
2023-03-20T22:02:12.239Z,31.05
2023-03-20T22:17:22.003Z,32.13
2023-03-20T22:25:53.105Z,25.98
2023-03-20T22:40:43.093Z,28.15
2023-03-20T22:45:31.516Z,26.33
2023-03-20T22:48:12.890Z,25.20
2023-03-20T22:50:48.851Z,26.58
2023-03-20T22:53:23.714Z,25.27
2023-03-20T22:55:57.262Z,26.90
2023-03-20T22:58:31.018Z,27.08
2023-03-20T23:01:04.767Z,26.02
2023-03-20T23:03:41.947Z,22.33
2023-03-20T23:06:21.253Z,24.55
2023-03-20T23:08:59.767Z,24.95
2023-03-20T23:11:37.093Z,24.40
2023-03-20T23:14:20.569Z,23.35
2023-03-20T23:16:55.497Z,25.25
2023-03-20T23:19:31.988Z,22.90
2023-03-20T23:22:05.496Z,21.20
2023-03-20T23:24:41.349Z,23.77
2023-03-20T23:27:14.883Z,21.85
2023-03-20T23:29:48.365Z,20.40
2023-03-20T23:32:21.843Z,21.77
2023-03-20T23:34:55.337Z,20.35
2023-03-20T23:37:28.839Z,20.15
2023-03-20T23:40:04.564Z,19.73
2023-03-20T23:42:38.201Z,21.60
2023-03-20T23:45:20.091Z,20.25
2023-03-20T23:47:54.269Z,23.25
2023-03-20T23:50:39.601Z,20.50
2023-03-20T23:53:20.979Z,19.55
2023-03-20T23:55:57.575Z,19.67
2023-03-20T23:58:31.033Z,19.60
